Terminal Aerodrome Forecast
Issued by NWS

Home | Current Version | Previous Version | Text Only | Print | Product List | Glossary On
Versions: 1 2 3 4 5 6 7 8 9 10 11 12 13
000
FTUS44 KCRP 262300
TAFALI
TAF
KALI 262329Z 2700/2724 15012KT P6SM SCT025 BKN050
     FM270300 15008KT P6SM OVC009
     FM270700 15004KT 2SM BR OVC004
      TEMPO 2710/2714 1/2SM FG OVC002
     FM271600 17006KT P6SM BKN005 OVC012
     FM271800 18008KT P6SM VCSH BKN030 PROB30 2720/2724 3SM -SHRA
      OVC025=

USA.gov is the U.S. government's official web portal to all federal, state and local government web resources and services.